Giurgiu, Romania
Current Conditions -  °F | °C
As of 1:00 PM on Wednesday 22 Oct 2014 (Local Time) from LRBS Reporting Station
Haze Haze  
Wind Chill: 57°   Ceiling: 500
Heat Index: 57°   Visibility: 3mi
Dew Point: 55°   Wind: 5mph
Humidity: 94%   Direction: 30°NNE
Pressure: 29.68"   Gusts: NA
Location:  43.9°N, 25.97°E
Report Text: LRBS 221000Z 03004KT 340V100 5000 BR BKN005 14/13 Q1005 NOSIG
Loading
Personal Weather Stations






























Interactive Weather Map
Tropical Storm Tracking
New forecast layout! Learn more

10-Day Weather Forecast

Advertisements
Track Severe Weather on mobile